METAR Data
IDs: Format: Raw Decoded Include TAF

Data at: 0117 UTC 20 Jul 2019

METAR for:PADQ (Kodiak Arpt, AK, US)
Text:PADQ 200053Z 11005KT 7SM FEW120 17/11 A3002 RMK AO2 SLP165 T01720111
Temperature: 17.2°C ( 63°F)
Dewpoint: 11.1°C ( 52°F) [RH = 67%]
Pressure (altimeter):30.02 inches Hg (1016.7 mb) [Sea level pressure: 1016.5 mb]
Winds:from the ESE (110 degrees) at 6 MPH (5 knots; 2.6 m/s)
Visibility: 7 sm ( 11 km)
Ceiling:at least 12,000 feet AGL
Clouds: few clouds at 12000 feet AGL
Text:PADQ 192353Z AUTO VRB03KT 8SM FEW049 SCT120 17/11 A3002 RMK AO2 SLP165 T01670111 10228 20161 51012 TSNO
Temperature: 16.7°C ( 62°F)
Dewpoint: 11.1°C ( 52°F) [RH = 70%]
Pressure (altimeter):30.02 inches Hg (1016.7 mb) [Sea level pressure: 1016.5 mb]
Winds:variable direction winds at 3 MPH (3 knots; 1.5 m/s)
Visibility: 8 sm ( 13 km)
Ceiling:at least 12,000 feet AGL
Clouds: few clouds at 4900 feet AGL, scattered clouds at 12000 feet AGL
QC Flag:automated observation with no human augmentation
Text:PADQ 192253Z 13007KT 9SM CLR 17/11 A3001 RMK AO2 SLP162 T01670111
Temperature: 16.7°C ( 62°F)
Dewpoint: 11.1°C ( 52°F) [RH = 70%]
Pressure (altimeter):30.01 inches Hg (1016.3 mb) [Sea level pressure: 1016.2 mb]
Winds:from the SE (130 degrees) at 8 MPH (7 knots; 3.6 m/s)
Visibility: 9 sm ( 14 km)
Ceiling:at least 12,000 feet AGL
Clouds:sky clear below 12,000 feet AGL
Text:PADQ 192153Z 08007KT 10SM BKN075 19/12 A2999 RMK AO2 SLP155 T01940117
Temperature: 19.4°C ( 67°F)
Dewpoint: 11.7°C ( 53°F) [RH = 61%]
Pressure (altimeter):29.99 inches Hg (1015.7 mb) [Sea level pressure: 1015.5 mb]
Winds:from the E (80 degrees) at 8 MPH (7 knots; 3.6 m/s)
Visibility:10 or more sm (16+ km)
Ceiling:7500 feet AGL
Clouds: broken clouds at 7500 feet AGL
Text:PADQ 192053Z 00000KT 9SM CLR 21/12 A2998 RMK AO2 SLP152 T02110117 53012
Temperature: 21.1°C ( 70°F)
Dewpoint: 11.7°C ( 53°F) [RH = 55%]
Pressure (altimeter):29.98 inches Hg (1015.3 mb) [Sea level pressure: 1015.2 mb]
Winds:calm
Visibility: 9 sm ( 14 km)
Ceiling:at least 12,000 feet AGL
Clouds:sky clear below 12,000 feet AGL
Text:PADQ 191953Z 32009KT 10SM BKN110 22/11 A2997 RMK AO2 SLP148 T02170106
Temperature: 21.7°C ( 71°F)
Dewpoint: 10.6°C ( 51°F) [RH = 49%]
Pressure (altimeter):29.97 inches Hg (1015.0 mb) [Sea level pressure: 1014.8 mb]
Winds:from the NW (320 degrees) at 10 MPH (9 knots; 4.6 m/s)
Visibility:10 or more sm (16+ km)
Ceiling:11000 feet AGL
Clouds: broken clouds at 11000 feet AGL

TAF for:PADQ (Kodiak Arpt, AK, US) issued at 2335 UTC 19 Jul 2019
Text:PADQ 192335Z 2000/2024 13007KT P6SM BKN080
Forecast period:0000 to 0300 UTC 20 July 2019
Forecast type:FROM: standard forecast or significant change
Winds:from the SE (130 degrees) at 8 MPH (7 knots; 3.6 m/s)
Visibility:6 or more sm (10+ km)
Ceiling:8000 feet AGL
Clouds: broken clouds at 8000 feet AGL
Text:FM200300 06005KT P6SM VCSH BKN080
Forecast period:0300 to 0900 UTC 20 July 2019
Forecast type:FROM: standard forecast or significant change
Winds:from the ENE (60 degrees) at 6 MPH (5 knots; 2.6 m/s)
Visibility:6 or more sm (10+ km)
Ceiling:8000 feet AGL
Clouds: broken clouds at 8000 feet AGL
Weather:VCSH (showers in vicinity)
Text:FM200900 36005KT P6SM VCSH SCT015 BKN025
Forecast period:0900 to 1100 UTC 20 July 2019
Forecast type:FROM: standard forecast or significant change
Winds:from the N (360 degrees) at 6 MPH (5 knots; 2.6 m/s)
Visibility:6 or more sm (10+ km)
Ceiling:2500 feet AGL
Clouds: scattered clouds at 1500 feet AGL, broken clouds at 2500 feet AGL
Weather:VCSH (showers in vicinity)
Text:FM201100 33004KT P6SM -RA BKN015
Forecast period:1100 UTC 20 July 2019 to 0000 UTC 21 July 2019
Forecast type:FROM: standard forecast or significant change
Winds:from the NNW (330 degrees) at 5 MPH (4 knots; 2.1 m/s)
Visibility:6 or more sm (10+ km)
Ceiling:1500 feet AGL
Clouds: broken clouds at 1500 feet AGL
Weather:-RA (light rain)